Terminal Aerodrome Forecast
Issued by NWS

Current Version | Previous Version | Text Only | Print | Product List | Glossary On
Versions: 1 2 3 4 5 6 7 8 9 10 11 12 13 14 15 16
000
FTUS42 TJSJ 181139
TAFJSJ
TAF
TJSJ 181139Z 1812/1912 11004KT P6SM VCSH FEW025 SCT060
      TEMPO 1812/1814 -SHRA SCT025 BKN040
     FM181400 08012KT P6SM FEW030
     FM182300 VRB05KT P6SM FEW030=

USA.gov is the U.S. government's official web portal to all federal, state and local government web resources and services.